sensor_id;sensor_type;location;lat;lon;timestamp;P1;durP1;ratioP1;P2;durP2;ratioP2
11263;SDS011;5689;48.798;9.070;2023-02-11T00:01:15;1.10;;;1.10;;
11263;SDS011;5689;48.798;9.070;2023-02-11T00:03:47;1.07;;;1.07;;
11263;SDS011;5689;48.798;9.070;2023-02-11T00:06:15;1.00;;;1.00;;
11263;SDS011;5689;48.798;9.070;2023-02-11T00:08:43;1.30;;;1.30;;
11263;SDS011;5689;48.798;9.070;2023-02-11T00:11:13;1.20;;;1.20;;
11263;SDS011;5689;48.798;9.070;2023-02-11T00:13:43;0.93;;;0.93;;
11263;SDS011;5689;48.798;9.070;2023-02-11T00:16:13;1.10;;;1.10;;
11263;SDS011;5689;48.798;9.070;2023-02-11T00:18:43;1.00;;;1.00;;
11263;SDS011;5689;48.798;9.070;2023-02-11T00:21:11;1.00;;;1.00;;
11263;SDS011;5689;48.798;9.070;2023-02-11T00:23:42;1.07;;;1.07;;
11263;SDS011;5689;48.798;9.070;2023-02-11T00:26:12;1.17;;;1.17;;
11263;SDS011;5689;48.798;9.070;2023-02-11T00:28:41;1.10;;;1.10;;
11263;SDS011;5689;48.798;9.070;2023-02-11T00:31:10;1.07;;;1.07;;
11263;SDS011;5689;48.798;9.070;2023-02-11T00:33:39;1.07;;;1.07;;
11263;SDS011;5689;48.798;9.070;2023-02-11T00:36:08;1.00;;;1.00;;
11263;SDS011;5689;48.798;9.070;2023-02-11T00:38:41;1.00;;;1.00;;
11263;SDS011;5689;48.798;9.070;2023-02-11T00:41:10;1.07;;;1.07;;
11263;SDS011;5689;48.798;9.070;2023-02-11T00:43:40;1.27;;;1.27;;
11263;SDS011;5689;48.798;9.070;2023-02-11T00:46:08;1.20;;;1.20;;
11263;SDS011;5689;48.798;9.070;2023-02-11T00:48:36;1.30;;;1.30;;
11263;SDS011;5689;48.798;9.070;2023-02-11T00:51:05;1.30;;;1.30;;
11263;SDS011;5689;48.798;9.070;2023-02-11T00:53:33;1.17;;;1.17;;
11263;SDS011;5689;48.798;9.070;2023-02-11T00:56:02;1.20;;;1.20;;
11263;SDS011;5689;48.798;9.070;2023-02-11T00:58:31;1.20;;;1.20;;
11263;SDS011;5689;48.798;9.070;2023-02-11T01:01:01;0.90;;;0.90;;
11263;SDS011;5689;48.798;9.070;2023-02-11T01:03:29;1.10;;;1.10;;
11263;SDS011;5689;48.798;9.070;2023-02-11T01:05:58;1.17;;;1.17;;
11263;SDS011;5689;48.798;9.070;2023-02-11T01:08:26;1.20;;;1.20;;
11263;SDS011;5689;48.798;9.070;2023-02-11T01:10:55;1.20;;;1.20;;
11263;SDS011;5689;48.798;9.070;2023-02-11T01:13:24;1.03;;;1.03;;
11263;SDS011;5689;48.798;9.070;2023-02-11T01:15:52;1.00;;;1.00;;
11263;SDS011;5689;48.798;9.070;2023-02-11T01:18:22;1.10;;;1.10;;
11263;SDS011;5689;48.798;9.070;2023-02-11T01:20:51;1.10;;;1.10;;
11263;SDS011;5689;48.798;9.070;2023-02-11T01:23:21;1.00;;;1.00;;
11263;SDS011;5689;48.798;9.070;2023-02-11T01:25:49;1.30;;;1.30;;
11263;SDS011;5689;48.798;9.070;2023-02-11T01:28:18;1.10;;;1.10;;
11263;SDS011;5689;48.798;9.070;2023-02-11T01:30:48;1.10;;;1.10;;
11263;SDS011;5689;48.798;9.070;2023-02-11T01:33:16;1.20;;;1.20;;
11263;SDS011;5689;48.798;9.070;2023-02-11T01:35:45;1.17;;;1.17;;
11263;SDS011;5689;48.798;9.070;2023-02-11T01:38:14;1.17;;;1.17;;
11263;SDS011;5689;48.798;9.070;2023-02-11T01:40:47;1.10;;;1.10;;
11263;SDS011;5689;48.798;9.070;2023-02-11T01:43:17;1.10;;;1.10;;
11263;SDS011;5689;48.798;9.070;2023-02-11T01:45:53;1.00;;;1.00;;
11263;SDS011;5689;48.798;9.070;2023-02-11T01:48:26;1.30;;;1.30;;
11263;SDS011;5689;48.798;9.070;2023-02-11T01:51:02;1.37;;;1.37;;
11263;SDS011;5689;48.798;9.070;2023-02-11T01:53:34;1.07;;;1.07;;
11263;SDS011;5689;48.798;9.070;2023-02-11T01:56:21;1.13;;;1.13;;
11263;SDS011;5689;48.798;9.070;2023-02-11T01:59:12;1.23;;;1.23;;
11263;SDS011;5689;48.798;9.070;2023-02-11T02:01:44;1.10;;;1.10;;
11263;SDS011;5689;48.798;9.070;2023-02-11T02:04:18;1.10;;;1.10;;
11263;SDS011;5689;48.798;9.070;2023-02-11T02:06:49;1.10;;;1.10;;
11263;SDS011;5689;48.798;9.070;2023-02-11T02:09:22;1.23;;;1.23;;
11263;SDS011;5689;48.798;9.070;2023-02-11T02:11:54;1.20;;;1.20;;
11263;SDS011;5689;48.798;9.070;2023-02-11T02:14:23;1.07;;;1.07;;
11263;SDS011;5689;48.798;9.070;2023-02-11T02:16:52;1.00;;;1.00;;
11263;SDS011;5689;48.798;9.070;2023-02-11T02:22:37;1.37;;;1.37;;
11263;SDS011;5689;48.798;9.070;2023-02-11T02:25:32;1.13;;;1.13;;
11263;SDS011;5689;48.798;9.070;2023-02-11T02:28:20;1.23;;;1.23;;
11263;SDS011;5689;48.798;9.070;2023-02-11T02:31:10;1.10;;;1.10;;
11263;SDS011;5689;48.798;9.070;2023-02-11T02:33:50;1.30;;;1.30;;
11263;SDS011;5689;48.798;9.070;2023-02-11T02:36:22;1.10;;;1.10;;
11263;SDS011;5689;48.798;9.070;2023-02-11T02:38:55;1.00;;;1.00;;
11263;SDS011;5689;48.798;9.070;2023-02-11T02:41:27;1.30;;;1.30;;
11263;SDS011;5689;48.798;9.070;2023-02-11T02:43:57;1.40;;;1.40;;
11263;SDS011;5689;48.798;9.070;2023-02-11T02:46:26;1.03;;;1.03;;
11263;SDS011;5689;48.798;9.070;2023-02-11T02:48:57;2.03;;;1.50;;
11263;SDS011;5689;48.798;9.070;2023-02-11T02:51:41;1.20;;;1.20;;
11263;SDS011;5689;48.798;9.070;2023-02-11T02:57:12;1.20;;;1.20;;
11263;SDS011;5689;48.798;9.070;2023-02-11T02:59:53;1.00;;;1.00;;
11263;SDS011;5689;48.798;9.070;2023-02-11T03:02:32;0.93;;;0.93;;
11263;SDS011;5689;48.798;9.070;2023-02-11T03:05:07;1.00;;;1.00;;
11263;SDS011;5689;48.798;9.070;2023-02-11T03:07:40;1.17;;;1.17;;
11263;SDS011;5689;48.798;9.070;2023-02-11T03:10:12;1.27;;;1.27;;
11263;SDS011;5689;48.798;9.070;2023-02-11T03:12:43;1.27;;;1.27;;
11263;SDS011;5689;48.798;9.070;2023-02-11T03:15:13;1.10;;;1.10;;
11263;SDS011;5689;48.798;9.070;2023-02-11T03:17:44;1.43;;;1.40;;
11263;SDS011;5689;48.798;9.070;2023-02-11T03:20:17;1.10;;;1.10;;
11263;SDS011;5689;48.798;9.070;2023-02-11T03:22:48;1.20;;;1.20;;
11263;SDS011;5689;48.798;9.070;2023-02-11T03:25:21;1.30;;;1.30;;
11263;SDS011;5689;48.798;9.070;2023-02-11T03:27:56;1.10;;;1.10;;
11263;SDS011;5689;48.798;9.070;2023-02-11T03:30:31;1.27;;;1.27;;
11263;SDS011;5689;48.798;9.070;2023-02-11T03:33:06;1.50;;;1.50;;
11263;SDS011;5689;48.798;9.070;2023-02-11T03:35:40;1.03;;;1.03;;
11263;SDS011;5689;48.798;9.070;2023-02-11T03:38:15;1.27;;;1.27;;
11263;SDS011;5689;48.798;9.070;2023-02-11T03:40:48;1.10;;;1.10;;
11263;SDS011;5689;48.798;9.070;2023-02-11T03:43:17;1.27;;;1.27;;
11263;SDS011;5689;48.798;9.070;2023-02-11T03:45:49;1.23;;;1.23;;
11263;SDS011;5689;48.798;9.070;2023-02-11T03:48:21;1.33;;;1.30;;
11263;SDS011;5689;48.798;9.070;2023-02-11T03:50:53;1.77;;;1.67;;
11263;SDS011;5689;48.798;9.070;2023-02-11T03:53:23;1.40;;;1.40;;
11263;SDS011;5689;48.798;9.070;2023-02-11T03:55:51;1.40;;;1.40;;
11263;SDS011;5689;48.798;9.070;2023-02-11T03:58:22;1.20;;;1.20;;
11263;SDS011;5689;48.798;9.070;2023-02-11T04:00:50;1.30;;;1.30;;
11263;SDS011;5689;48.798;9.070;2023-02-11T04:03:19;1.40;;;1.40;;
11263;SDS011;5689;48.798;9.070;2023-02-11T04:05:47;1.30;;;1.30;;
11263;SDS011;5689;48.798;9.070;2023-02-11T04:08:16;1.20;;;1.20;;
11263;SDS011;5689;48.798;9.070;2023-02-11T04:10:56;1.23;;;1.23;;
11263;SDS011;5689;48.798;9.070;2023-02-11T04:13:24;1.20;;;1.20;;
11263;SDS011;5689;48.798;9.070;2023-02-11T04:15:52;1.37;;;1.37;;
11263;SDS011;5689;48.798;9.070;2023-02-11T04:18:20;1.07;;;1.07;;
11263;SDS011;5689;48.798;9.070;2023-02-11T04:20:49;1.03;;;1.03;;
11263;SDS011;5689;48.798;9.070;2023-02-11T04:23:17;1.17;;;1.17;;
11263;SDS011;5689;48.798;9.070;2023-02-11T04:25:45;1.10;;;1.10;;
11263;SDS011;5689;48.798;9.070;2023-02-11T04:28:14;1.20;;;1.20;;
11263;SDS011;5689;48.798;9.070;2023-02-11T04:30:42;1.10;;;1.10;;
11263;SDS011;5689;48.798;9.070;2023-02-11T04:33:10;1.00;;;1.00;;
11263;SDS011;5689;48.798;9.070;2023-02-11T04:35:38;0.93;;;0.93;;
11263;SDS011;5689;48.798;9.070;2023-02-11T04:38:06;0.97;;;0.97;;
11263;SDS011;5689;48.798;9.070;2023-02-11T04:40:34;1.00;;;1.00;;
11263;SDS011;5689;48.798;9.070;2023-02-11T04:43:02;1.20;;;1.20;;
11263;SDS011;5689;48.798;9.070;2023-02-11T04:45:32;1.00;;;1.00;;
11263;SDS011;5689;48.798;9.070;2023-02-11T04:48:00;1.00;;;1.00;;
11263;SDS011;5689;48.798;9.070;2023-02-11T04:50:29;1.03;;;1.03;;
11263;SDS011;5689;48.798;9.070;2023-02-11T04:52:57;1.03;;;1.03;;
11263;SDS011;5689;48.798;9.070;2023-02-11T04:55:25;1.00;;;1.00;;
11263;SDS011;5689;48.798;9.070;2023-02-11T04:57:53;0.93;;;0.93;;
11263;SDS011;5689;48.798;9.070;2023-02-11T05:00:21;1.10;;;1.10;;
11263;SDS011;5689;48.798;9.070;2023-02-11T05:02:50;0.90;;;0.90;;
11263;SDS011;5689;48.798;9.070;2023-02-11T05:05:18;0.90;;;0.90;;
11263;SDS011;5689;48.798;9.070;2023-02-11T05:07:46;1.00;;;1.00;;
11263;SDS011;5689;48.798;9.070;2023-02-11T05:10:14;0.90;;;0.90;;
11263;SDS011;5689;48.798;9.070;2023-02-11T05:12:42;1.00;;;1.00;;
11263;SDS011;5689;48.798;9.070;2023-02-11T05:15:10;1.13;;;1.00;;
11263;SDS011;5689;48.798;9.070;2023-02-11T05:17:38;0.87;;;0.87;;
11263;SDS011;5689;48.798;9.070;2023-02-11T05:20:09;0.73;;;0.73;;
11263;SDS011;5689;48.798;9.070;2023-02-11T05:22:37;0.93;;;0.93;;
11263;SDS011;5689;48.798;9.070;2023-02-11T05:25:05;1.00;;;1.00;;
11263;SDS011;5689;48.798;9.070;2023-02-11T05:27:33;0.87;;;0.87;;
11263;SDS011;5689;48.798;9.070;2023-02-11T05:30:02;0.80;;;0.80;;
11263;SDS011;5689;48.798;9.070;2023-02-11T05:32:30;0.97;;;0.97;;
11263;SDS011;5689;48.798;9.070;2023-02-11T05:34:58;0.80;;;0.80;;
11263;SDS011;5689;48.798;9.070;2023-02-11T05:37:28;1.10;;;1.10;;
11263;SDS011;5689;48.798;9.070;2023-02-11T05:39:56;1.03;;;1.03;;
11263;SDS011;5689;48.798;9.070;2023-02-11T05:42:24;1.00;;;1.00;;
11263;SDS011;5689;48.798;9.070;2023-02-11T05:44:52;0.73;;;0.73;;
11263;SDS011;5689;48.798;9.070;2023-02-11T05:47:20;0.90;;;0.90;;
11263;SDS011;5689;48.798;9.070;2023-02-11T05:49:48;0.80;;;0.80;;
11263;SDS011;5689;48.798;9.070;2023-02-11T05:52:15;0.70;;;0.70;;
11263;SDS011;5689;48.798;9.070;2023-02-11T05:54:45;0.80;;;0.80;;
11263;SDS011;5689;48.798;9.070;2023-02-11T05:57:13;0.90;;;0.90;;
11263;SDS011;5689;48.798;9.070;2023-02-11T05:59:41;0.80;;;0.80;;
11263;SDS011;5689;48.798;9.070;2023-02-11T06:02:09;0.87;;;0.87;;
11263;SDS011;5689;48.798;9.070;2023-02-11T06:04:37;0.97;;;0.97;;
11263;SDS011;5689;48.798;9.070;2023-02-11T06:07:05;0.90;;;0.90;;
11263;SDS011;5689;48.798;9.070;2023-02-11T06:09:33;0.80;;;0.80;;
11263;SDS011;5689;48.798;9.070;2023-02-11T06:12:02;1.03;;;1.03;;
11263;SDS011;5689;48.798;9.070;2023-02-11T06:14:31;0.90;;;0.90;;
11263;SDS011;5689;48.798;9.070;2023-02-11T06:16:59;0.90;;;0.90;;
11263;SDS011;5689;48.798;9.070;2023-02-11T06:19:27;0.90;;;0.90;;
11263;SDS011;5689;48.798;9.070;2023-02-11T06:21:56;1.13;;;1.13;;
11263;SDS011;5689;48.798;9.070;2023-02-11T06:24:24;0.87;;;0.87;;
11263;SDS011;5689;48.798;9.070;2023-02-11T06:27:13;0.90;;;0.90;;
11263;SDS011;5689;48.798;9.070;2023-02-11T06:29:41;0.90;;;0.90;;
11263;SDS011;5689;48.798;9.070;2023-02-11T06:32:09;0.80;;;0.80;;
11263;SDS011;5689;48.798;9.070;2023-02-11T06:34:57;0.90;;;0.90;;
11263;SDS011;5689;48.798;9.070;2023-02-11T06:37:25;1.00;;;1.00;;
11263;SDS011;5689;48.798;9.070;2023-02-11T06:39:53;0.90;;;0.90;;
11263;SDS011;5689;48.798;9.070;2023-02-11T06:42:22;0.80;;;0.80;;
11263;SDS011;5689;48.798;9.070;2023-02-11T06:44:50;0.80;;;0.80;;
11263;SDS011;5689;48.798;9.070;2023-02-11T06:47:18;0.77;;;0.77;;
11263;SDS011;5689;48.798;9.070;2023-02-11T06:49:46;0.80;;;0.80;;
11263;SDS011;5689;48.798;9.070;2023-02-11T06:52:14;0.87;;;0.87;;
11263;SDS011;5689;48.798;9.070;2023-02-11T06:54:42;0.70;;;0.70;;
11263;SDS011;5689;48.798;9.070;2023-02-11T06:57:10;0.87;;;0.87;;
11263;SDS011;5689;48.798;9.070;2023-02-11T06:59:39;0.80;;;0.80;;
11263;SDS011;5689;48.798;9.070;2023-02-11T07:02:07;0.80;;;0.80;;
11263;SDS011;5689;48.798;9.070;2023-02-11T07:04:36;0.70;;;0.70;;
11263;SDS011;5689;48.798;9.070;2023-02-11T07:07:04;0.70;;;0.70;;
11263;SDS011;5689;48.798;9.070;2023-02-11T07:09:32;0.67;;;0.67;;
11263;SDS011;5689;48.798;9.070;2023-02-11T07:12:00;0.90;;;0.90;;
11263;SDS011;5689;48.798;9.070;2023-02-11T07:14:28;0.70;;;0.70;;
11263;SDS011;5689;48.798;9.070;2023-02-11T07:16:57;0.70;;;0.70;;
11263;SDS011;5689;48.798;9.070;2023-02-11T07:19:25;0.77;;;0.77;;
11263;SDS011;5689;48.798;9.070;2023-02-11T07:21:53;0.80;;;0.80;;
11263;SDS011;5689;48.798;9.070;2023-02-11T07:24:21;0.70;;;0.70;;
11263;SDS011;5689;48.798;9.070;2023-02-11T07:26:50;0.70;;;0.70;;
11263;SDS011;5689;48.798;9.070;2023-02-11T07:29:19;0.80;;;0.80;;
11263;SDS011;5689;48.798;9.070;2023-02-11T07:31:47;0.60;;;0.60;;
11263;SDS011;5689;48.798;9.070;2023-02-11T07:34:17;0.70;;;0.70;;
11263;SDS011;5689;48.798;9.070;2023-02-11T07:36:45;0.70;;;0.70;;
11263;SDS011;5689;48.798;9.070;2023-02-11T07:39:14;0.70;;;0.70;;
11263;SDS011;5689;48.798;9.070;2023-02-11T07:41:42;0.80;;;0.80;;
11263;SDS011;5689;48.798;9.070;2023-02-11T07:44:13;0.80;;;0.80;;
11263;SDS011;5689;48.798;9.070;2023-02-11T07:46:41;0.70;;;0.70;;
11263;SDS011;5689;48.798;9.070;2023-02-11T07:49:10;0.70;;;0.70;;
11263;SDS011;5689;48.798;9.070;2023-02-11T07:51:40;0.70;;;0.70;;
11263;SDS011;5689;48.798;9.070;2023-02-11T07:54:09;0.70;;;0.70;;
11263;SDS011;5689;48.798;9.070;2023-02-11T07:56:37;0.70;;;0.70;;
11263;SDS011;5689;48.798;9.070;2023-02-11T07:59:06;0.70;;;0.70;;
11263;SDS011;5689;48.798;9.070;2023-02-11T08:01:33;0.73;;;0.73;;
11263;SDS011;5689;48.798;9.070;2023-02-11T08:04:02;0.80;;;0.80;;
11263;SDS011;5689;48.798;9.070;2023-02-11T08:06:30;0.70;;;0.70;;
11263;SDS011;5689;48.798;9.070;2023-02-11T08:09:04;0.57;;;0.57;;
11263;SDS011;5689;48.798;9.070;2023-02-11T08:11:33;0.50;;;0.50;;
11263;SDS011;5689;48.798;9.070;2023-02-11T08:14:01;0.60;;;0.60;;
11263;SDS011;5689;48.798;9.070;2023-02-11T08:16:30;0.60;;;0.60;;
11263;SDS011;5689;48.798;9.070;2023-02-11T08:19:00;0.50;;;0.50;;
11263;SDS011;5689;48.798;9.070;2023-02-11T08:21:29;0.50;;;0.50;;
11263;SDS011;5689;48.798;9.070;2023-02-11T08:23:57;0.53;;;0.53;;
11263;SDS011;5689;48.798;9.070;2023-02-11T08:26:29;0.50;;;0.50;;
11263;SDS011;5689;48.798;9.070;2023-02-11T08:29:00;0.40;;;0.40;;
11263;SDS011;5689;48.798;9.070;2023-02-11T08:31:32;0.50;;;0.50;;
11263;SDS011;5689;48.798;9.070;2023-02-11T08:34:02;0.60;;;0.60;;
11263;SDS011;5689;48.798;9.070;2023-02-11T08:36:31;0.50;;;0.50;;
11263;SDS011;5689;48.798;9.070;2023-02-11T08:39:01;0.40;;;0.40;;
11263;SDS011;5689;48.798;9.070;2023-02-11T08:41:45;0.47;;;0.47;;
11263;SDS011;5689;48.798;9.070;2023-02-11T08:44:14;0.40;;;0.40;;
11263;SDS011;5689;48.798;9.070;2023-02-11T08:46:42;0.30;;;0.30;;
11263;SDS011;5689;48.798;9.070;2023-02-11T08:49:10;0.20;;;0.20;;
11263;SDS011;5689;48.798;9.070;2023-02-11T08:51:38;0.30;;;0.30;;
11263;SDS011;5689;48.798;9.070;2023-02-11T08:54:06;0.20;;;0.20;;
11263;SDS011;5689;48.798;9.070;2023-02-11T08:56:35;0.20;;;0.20;;
11263;SDS011;5689;48.798;9.070;2023-02-11T08:59:05;0.20;;;0.20;;
11263;SDS011;5689;48.798;9.070;2023-02-11T09:01:34;0.10;;;0.10;;
11263;SDS011;5689;48.798;9.070;2023-02-11T09:04:02;0.10;;;0.10;;
11263;SDS011;5689;48.798;9.070;2023-02-11T09:06:31;0.10;;;0.10;;
11263;SDS011;5689;48.798;9.070;2023-02-11T09:08:59;0.10;;;0.10;;
11263;SDS011;5689;48.798;9.070;2023-02-11T09:11:28;0.10;;;0.10;;
11263;SDS011;5689;48.798;9.070;2023-02-11T09:13:58;0.10;;;0.10;;
11263;SDS011;5689;48.798;9.070;2023-02-11T09:16:28;0.20;;;0.20;;
11263;SDS011;5689;48.798;9.070;2023-02-11T09:18:58;0.20;;;0.20;;
11263;SDS011;5689;48.798;9.070;2023-02-11T09:21:27;0.20;;;0.20;;
11263;SDS011;5689;48.798;9.070;2023-02-11T09:23:56;0.30;;;0.30;;
11263;SDS011;5689;48.798;9.070;2023-02-11T09:26:25;0.20;;;0.20;;
11263;SDS011;5689;48.798;9.070;2023-02-11T09:28:54;0.20;;;0.20;;
11263;SDS011;5689;48.798;9.070;2023-02-11T09:31:23;0.28;;;0.28;;
11263;SDS011;5689;48.798;9.070;2023-02-11T09:33:55;0.20;;;0.20;;
11263;SDS011;5689;48.798;9.070;2023-02-11T09:36:25;0.20;;;0.20;;
11263;SDS011;5689;48.798;9.070;2023-02-11T09:38:54;0.20;;;0.20;;
11263;SDS011;5689;48.798;9.070;2023-02-11T09:41:36;0.20;;;0.20;;
11263;SDS011;5689;48.798;9.070;2023-02-11T09:44:15;0.10;;;0.10;;
11263;SDS011;5689;48.798;9.070;2023-02-11T09:46:46;0.10;;;0.10;;
11263;SDS011;5689;48.798;9.070;2023-02-11T09:49:23;0.20;;;0.20;;
11263;SDS011;5689;48.798;9.070;2023-02-11T09:51:57;0.20;;;0.20;;
11263;SDS011;5689;48.798;9.070;2023-02-11T09:54:33;0.20;;;0.20;;
11263;SDS011;5689;48.798;9.070;2023-02-11T09:57:06;0.20;;;0.20;;
11263;SDS011;5689;48.798;9.070;2023-02-11T09:59:48;0.20;;;0.20;;
11263;SDS011;5689;48.798;9.070;2023-02-11T10:02:18;0.20;;;0.20;;
11263;SDS011;5689;48.798;9.070;2023-02-11T10:05:01;0.20;;;0.20;;
11263;SDS011;5689;48.798;9.070;2023-02-11T10:07:41;0.30;;;0.30;;
11263;SDS011;5689;48.798;9.070;2023-02-11T10:10:16;0.20;;;0.20;;
11263;SDS011;5689;48.798;9.070;2023-02-11T10:12:58;0.20;;;0.20;;
11263;SDS011;5689;48.798;9.070;2023-02-11T10:15:37;0.20;;;0.20;;
11263;SDS011;5689;48.798;9.070;2023-02-11T10:18:18;0.20;;;0.20;;
11263;SDS011;5689;48.798;9.070;2023-02-11T10:21:06;0.15;;;0.15;;
11263;SDS011;5689;48.798;9.070;2023-02-11T10:23:44;0.17;;;0.17;;
11263;SDS011;5689;48.798;9.070;2023-02-11T10:26:18;0.10;;;0.10;;
11263;SDS011;5689;48.798;9.070;2023-02-11T10:28:47;0.20;;;0.20;;
11263;SDS011;5689;48.798;9.070;2023-02-11T10:31:21;0.15;;;0.15;;
11263;SDS011;5689;48.798;9.070;2023-02-11T10:33:53;0.15;;;0.15;;
11263;SDS011;5689;48.798;9.070;2023-02-11T10:36:28;0.20;;;0.20;;
11263;SDS011;5689;48.798;9.070;2023-02-11T10:38:59;0.30;;;0.30;;
11263;SDS011;5689;48.798;9.070;2023-02-11T10:41:37;0.20;;;0.20;;
11263;SDS011;5689;48.798;9.070;2023-02-11T10:44:12;0.32;;;0.32;;
11263;SDS011;5689;48.798;9.070;2023-02-11T10:46:49;0.20;;;0.20;;
11263;SDS011;5689;48.798;9.070;2023-02-11T10:49:37;0.20;;;0.20;;
11263;SDS011;5689;48.798;9.070;2023-02-11T10:52:21;0.40;;;0.40;;
11263;SDS011;5689;48.798;9.070;2023-02-11T10:54:54;0.38;;;0.38;;
11263;SDS011;5689;48.798;9.070;2023-02-11T10:57:25;0.30;;;0.30;;
11263;SDS011;5689;48.798;9.070;2023-02-11T10:59:57;0.20;;;0.20;;
11263;SDS011;5689;48.798;9.070;2023-02-11T11:02:30;0.22;;;0.22;;
11263;SDS011;5689;48.798;9.070;2023-02-11T11:05:02;0.20;;;0.20;;
11263;SDS011;5689;48.798;9.070;2023-02-11T11:07:35;0.20;;;0.20;;
11263;SDS011;5689;48.798;9.070;2023-02-11T11:10:05;0.20;;;0.20;;
11263;SDS011;5689;48.798;9.070;2023-02-11T11:12:52;0.20;;;0.20;;
11263;SDS011;5689;48.798;9.070;2023-02-11T11:15:22;0.20;;;0.20;;
11263;SDS011;5689;48.798;9.070;2023-02-11T11:18:07;0.10;;;0.10;;
11263;SDS011;5689;48.798;9.070;2023-02-11T11:20:53;0.30;;;0.30;;
11263;SDS011;5689;48.798;9.070;2023-02-11T11:23:25;0.20;;;0.20;;
11263;SDS011;5689;48.798;9.070;2023-02-11T11:26:00;0.20;;;0.20;;
11263;SDS011;5689;48.798;9.070;2023-02-11T11:28:32;0.20;;;0.20;;
11263;SDS011;5689;48.798;9.070;2023-02-11T11:31:05;0.20;;;0.20;;
11263;SDS011;5689;48.798;9.070;2023-02-11T11:33:40;0.20;;;0.20;;
11263;SDS011;5689;48.798;9.070;2023-02-11T11:36:10;0.13;;;0.13;;
11263;SDS011;5689;48.798;9.070;2023-02-11T11:38:43;0.20;;;0.20;;
11263;SDS011;5689;48.798;9.070;2023-02-11T11:41:15;0.20;;;0.20;;
11263;SDS011;5689;48.798;9.070;2023-02-11T11:46:48;0.20;;;0.20;;
11263;SDS011;5689;48.798;9.070;2023-02-11T11:49:32;0.25;;;0.25;;
11263;SDS011;5689;48.798;9.070;2023-02-11T11:52:08;0.20;;;0.20;;
11263;SDS011;5689;48.798;9.070;2023-02-11T11:54:46;0.20;;;0.20;;
11263;SDS011;5689;48.798;9.070;2023-02-11T11:57:23;0.13;;;0.13;;
11263;SDS011;5689;48.798;9.070;2023-02-11T11:59:56;0.20;;;0.20;;
11263;SDS011;5689;48.798;9.070;2023-02-11T12:05:24;0.20;;;0.20;;
11263;SDS011;5689;48.798;9.070;2023-02-11T12:07:57;0.10;;;0.10;;
11263;SDS011;5689;48.798;9.070;2023-02-11T12:10:36;0.20;;;0.20;;
11263;SDS011;5689;48.798;9.070;2023-02-11T12:13:15;0.20;;;0.20;;
11263;SDS011;5689;48.798;9.070;2023-02-11T12:15:55;0.10;;;0.10;;
11263;SDS011;5689;48.798;9.070;2023-02-11T12:18:40;0.10;;;0.10;;
11263;SDS011;5689;48.798;9.070;2023-02-11T12:21:23;0.10;;;0.10;;
11263;SDS011;5689;48.798;9.070;2023-02-11T12:24:05;0.10;;;0.10;;
11263;SDS011;5689;48.798;9.070;2023-02-11T12:26:44;0.20;;;0.20;;
11263;SDS011;5689;48.798;9.070;2023-02-11T12:29:20;0.20;;;0.20;;
11263;SDS011;5689;48.798;9.070;2023-02-11T12:34:55;0.10;;;0.10;;
11263;SDS011;5689;48.798;9.070;2023-02-11T12:37:41;0.10;;;0.10;;
11263;SDS011;5689;48.798;9.070;2023-02-11T12:40:25;0.17;;;0.17;;
11263;SDS011;5689;48.798;9.070;2023-02-11T12:43:04;0.20;;;0.20;;
11263;SDS011;5689;48.798;9.070;2023-02-11T12:48:58;0.20;;;0.20;;
11263;SDS011;5689;48.798;9.070;2023-02-11T12:51:45;0.20;;;0.20;;
11263;SDS011;5689;48.798;9.070;2023-02-11T12:54:22;0.20;;;0.20;;
11263;SDS011;5689;48.798;9.070;2023-02-11T12:56:56;0.20;;;0.20;;
11263;SDS011;5689;48.798;9.070;2023-02-11T12:59:32;0.20;;;0.20;;
11263;SDS011;5689;48.798;9.070;2023-02-11T13:02:10;0.30;;;0.30;;
11263;SDS011;5689;48.798;9.070;2023-02-11T13:04:45;0.20;;;0.20;;
11263;SDS011;5689;48.798;9.070;2023-02-11T13:07:19;0.20;;;0.20;;
11263;SDS011;5689;48.798;9.070;2023-02-11T13:09:52;0.30;;;0.30;;
11263;SDS011;5689;48.798;9.070;2023-02-11T13:12:25;0.10;;;0.10;;
11263;SDS011;5689;48.798;9.070;2023-02-11T13:15:17;0.10;;;0.10;;
11263;SDS011;5689;48.798;9.070;2023-02-11T13:17:48;0.17;;;0.17;;
11263;SDS011;5689;48.798;9.070;2023-02-11T13:20:34;0.10;;;0.10;;
11263;SDS011;5689;48.798;9.070;2023-02-11T13:23:10;0.10;;;0.10;;
11263;SDS011;5689;48.798;9.070;2023-02-11T13:25:46;0.20;;;0.20;;
11263;SDS011;5689;48.798;9.070;2023-02-11T13:28:22;0.10;;;0.10;;
11263;SDS011;5689;48.798;9.070;2023-02-11T13:31:01;0.10;;;0.10;;
11263;SDS011;5689;48.798;9.070;2023-02-11T13:33:34;0.20;;;0.20;;
11263;SDS011;5689;48.798;9.070;2023-02-11T13:36:15;0.10;;;0.10;;
11263;SDS011;5689;48.798;9.070;2023-02-11T13:39:00;0.10;;;0.10;;
11263;SDS011;5689;48.798;9.070;2023-02-11T13:41:40;0.20;;;0.20;;
11263;SDS011;5689;48.798;9.070;2023-02-11T13:44:22;0.20;;;0.20;;
11263;SDS011;5689;48.798;9.070;2023-02-11T13:46:56;0.30;;;0.30;;
11263;SDS011;5689;48.798;9.070;2023-02-11T13:49:31;0.20;;;0.20;;
11263;SDS011;5689;48.798;9.070;2023-02-11T13:52:17;0.20;;;0.20;;
11263;SDS011;5689;48.798;9.070;2023-02-11T13:54:54;0.20;;;0.20;;
11263;SDS011;5689;48.798;9.070;2023-02-11T13:57:29;0.20;;;0.20;;
11263;SDS011;5689;48.798;9.070;2023-02-11T14:00:00;0.10;;;0.10;;
11263;SDS011;5689;48.798;9.070;2023-02-11T14:02:37;0.20;;;0.20;;
11263;SDS011;5689;48.798;9.070;2023-02-11T14:05:27;0.20;;;0.20;;
11263;SDS011;5689;48.798;9.070;2023-02-11T14:08:18;0.20;;;0.20;;
11263;SDS011;5689;48.798;9.070;2023-02-11T14:11:10;0.20;;;0.20;;
11263;SDS011;5689;48.798;9.070;2023-02-11T14:14:16;0.20;;;0.20;;
11263;SDS011;5689;48.798;9.070;2023-02-11T14:19:51;0.20;;;0.20;;
11263;SDS011;5689;48.798;9.070;2023-02-11T14:22:21;0.30;;;0.30;;
11263;SDS011;5689;48.798;9.070;2023-02-11T14:24:53;0.20;;;0.20;;
11263;SDS011;5689;48.798;9.070;2023-02-11T14:27:27;0.25;;;0.25;;
11263;SDS011;5689;48.798;9.070;2023-02-11T14:30:03;0.30;;;0.30;;
11263;SDS011;5689;48.798;9.070;2023-02-11T14:32:45;0.20;;;0.20;;
11263;SDS011;5689;48.798;9.070;2023-02-11T14:35:29;0.20;;;0.20;;
11263;SDS011;5689;48.798;9.070;2023-02-11T14:38:15;0.20;;;0.20;;
11263;SDS011;5689;48.798;9.070;2023-02-11T14:40:59;0.20;;;0.20;;
11263;SDS011;5689;48.798;9.070;2023-02-11T14:43:47;0.20;;;0.20;;
11263;SDS011;5689;48.798;9.070;2023-02-11T14:47:05;0.10;;;0.10;;
11263;SDS011;5689;48.798;9.070;2023-02-11T14:49:38;0.10;;;0.10;;
11263;SDS011;5689;48.798;9.070;2023-02-11T14:52:12;0.10;;;0.10;;
11263;SDS011;5689;48.798;9.070;2023-02-11T14:55:04;0.10;;;0.10;;
11263;SDS011;5689;48.798;9.070;2023-02-11T14:58:12;0.10;;;0.10;;
11263;SDS011;5689;48.798;9.070;2023-02-11T15:00:48;0.10;;;0.10;;
11263;SDS011;5689;48.798;9.070;2023-02-11T15:03:24;0.25;;;0.25;;
11263;SDS011;5689;48.798;9.070;2023-02-11T15:05:58;0.20;;;0.20;;
11263;SDS011;5689;48.798;9.070;2023-02-11T15:08:29;0.30;;;0.30;;
11263;SDS011;5689;48.798;9.070;2023-02-11T15:10:58;0.30;;;0.30;;
11263;SDS011;5689;48.798;9.070;2023-02-11T15:13:29;0.30;;;0.30;;
11263;SDS011;5689;48.798;9.070;2023-02-11T15:15:59;0.40;;;0.40;;
11263;SDS011;5689;48.798;9.070;2023-02-11T15:18:33;0.30;;;0.30;;
11263;SDS011;5689;48.798;9.070;2023-02-11T15:21:04;0.20;;;0.20;;
11263;SDS011;5689;48.798;9.070;2023-02-11T15:23:34;0.30;;;0.30;;
11263;SDS011;5689;48.798;9.070;2023-02-11T15:26:10;0.30;;;0.30;;
11263;SDS011;5689;48.798;9.070;2023-02-11T15:28:43;0.30;;;0.30;;
11263;SDS011;5689;48.798;9.070;2023-02-11T15:31:18;0.40;;;0.40;;
11263;SDS011;5689;48.798;9.070;2023-02-11T15:33:49;0.40;;;0.40;;
11263;SDS011;5689;48.798;9.070;2023-02-11T15:36:18;0.40;;;0.40;;
11263;SDS011;5689;48.798;9.070;2023-02-11T15:41:46;0.40;;;0.40;;
11263;SDS011;5689;48.798;9.070;2023-02-11T15:44:27;0.50;;;0.50;;
11263;SDS011;5689;48.798;9.070;2023-02-11T15:46:57;0.47;;;0.47;;
11263;SDS011;5689;48.798;9.070;2023-02-11T15:49:25;0.40;;;0.40;;
11263;SDS011;5689;48.798;9.070;2023-02-11T15:51:54;0.43;;;0.43;;
11263;SDS011;5689;48.798;9.070;2023-02-11T15:54:25;0.43;;;0.43;;
11263;SDS011;5689;48.798;9.070;2023-02-11T15:56:58;0.40;;;0.40;;
11263;SDS011;5689;48.798;9.070;2023-02-11T15:59:30;0.40;;;0.40;;